Time;durP1;ratioP1;P1;durP2;ratioP2;P2;SDS_P1;SDS_P2;PMS_P1;PMS_P2;Temp;Humidity;BMP_temperature;BMP_pressure;BME280_temperature;BME280_humidity;BME280_pressure;Samples;Min_cycle;Max_cycle;Signal;HPM_P1;HPM_P2
2021/01/07 00:01:15;;;;;;;5.90;4.88;;;0.80;99.90;;;;;;5023872;28;20202;-74
2021/01/07 00:03:42;;;;;;;5.55;5.00;;;0.80;99.90;;;;;;5016165;28;20648;-76
2021/01/07 00:06:09;;;;;;;5.47;4.95;;;0.80;99.90;;;;;;5009609;28;20199;-76
2021/01/07 00:08:36;;;;;;;5.68;5.00;;;0.80;99.90;;;;;;5020326;28;20210;-75
2021/01/07 00:13:30;;;;;;;6.45;4.97;;;0.80;99.90;;;;;;4931986;29;20265;-75
2021/01/07 00:15:56;;;;;;;7.20;4.90;;;0.80;99.90;;;;;;4932600;29;20660;-75
2021/01/07 00:18:23;;;;;;;4.90;4.38;;;0.80;99.90;;;;;;4933005;29;20574;-75
2021/01/07 00:20:49;;;;;;;5.35;4.70;;;0.70;99.90;;;;;;4932819;29;20217;-74
2021/01/07 00:23:16;;;;;;;5.47;4.55;;;0.70;99.90;;;;;;4931878;29;20741;-75
2021/01/07 00:25:47;;;;;;;5.20;4.35;;;0.80;99.90;;;;;;4932659;29;20462;-74
2021/01/07 00:28:14;;;;;;;4.63;3.85;;;0.80;99.90;;;;;;4931726;29;20213;-75
2021/01/07 00:30:41;;;;;;;5.88;5.10;;;0.70;99.90;;;;;;4932291;29;20209;-75
2021/01/07 00:33:08;;;;;;;7.82;5.28;;;0.70;99.90;;;;;;4932144;29;20212;-74
2021/01/07 00:35:35;;;;;;;6.00;4.53;;;0.80;99.90;;;;;;4932698;29;20236;-74
2021/01/07 00:38:01;;;;;;;5.88;4.47;;;0.80;99.90;;;;;;4932870;29;20201;-75
2021/01/07 00:40:27;;;;;;;5.10;4.60;;;0.80;99.90;;;;;;4932530;29;20208;-75
2021/01/07 00:42:53;;;;;;;8.32;5.82;;;0.80;99.90;;;;;;4932178;29;20209;-75
2021/01/07 00:45:19;;;;;;;4.53;4.13;;;0.80;99.90;;;;;;4932561;29;20717;-74
2021/01/07 00:47:46;;;;;;;5.28;4.75;;;0.80;99.90;;;;;;4932732;29;20213;-75
2021/01/07 00:50:12;;;;;;;6.50;4.95;;;0.80;99.90;;;;;;4932734;29;20688;-74
2021/01/07 00:52:40;;;;;;;5.45;4.82;;;0.80;99.90;;;;;;4932144;29;20700;-74
2021/01/07 00:55:07;;;;;;;6.28;5.68;;;0.80;99.90;;;;;;4932421;29;20872;-74
2021/01/07 00:57:33;;;;;;;6.15;5.30;;;0.90;99.90;;;;;;4932065;29;20255;-73
2021/01/07 00:59:59;;;;;;;6.80;6.15;;;0.90;99.90;;;;;;4932472;29;20212;-74
2021/01/07 01:02:25;;;;;;;5.85;4.57;;;0.80;99.90;;;;;;4931629;29;20625;-75
2021/01/07 01:04:52;;;;;;;5.35;4.85;;;0.80;99.90;;;;;;4932285;29;20225;-74
2021/01/07 01:07:18;;;;;;;6.60;5.07;;;0.90;99.90;;;;;;4932106;29;20358;-74
2021/01/07 01:09:45;;;;;;;7.82;5.80;;;0.90;99.90;;;;;;4929560;29;20209;-73
2021/01/07 01:12:11;;;;;;;6.55;5.50;;;0.90;99.90;;;;;;4929999;29;20217;-73
2021/01/07 01:14:37;;;;;;;6.72;5.30;;;0.90;99.90;;;;;;4931857;29;20240;-74
2021/01/07 01:17:04;;;;;;;5.80;5.20;;;0.90;99.90;;;;;;4932009;29;20224;-73
2021/01/07 01:19:31;;;;;;;5.78;5.18;;;0.80;99.90;;;;;;4931611;29;20216;-74
2021/01/07 01:21:57;;;;;;;8.40;5.40;;;0.80;99.90;;;;;;4930646;29;20728;-74
2021/01/07 01:24:23;;;;;;;6.70;5.35;;;0.80;99.90;;;;;;4931906;29;20229;-74
2021/01/07 01:26:54;;;;;;;5.05;4.55;;;0.90;99.90;;;;;;4932827;29;20197;-74
2021/01/07 01:29:21;;;;;;;7.20;5.63;;;0.90;99.90;;;;;;4931773;29;20282;-74
2021/01/07 01:31:47;;;;;;;6.00;5.32;;;0.90;99.90;;;;;;4931335;29;20208;-76
2021/01/07 01:34:15;;;;;;;5.93;5.10;;;0.90;99.90;;;;;;4931667;29;20232;-76
2021/01/07 01:36:41;;;;;;;5.53;4.95;;;0.80;99.90;;;;;;4931970;29;20614;-73
2021/01/07 01:39:07;;;;;;;6.35;4.78;;;0.70;99.90;;;;;;4931934;29;20271;-73
2021/01/07 01:41:39;;;;;;;5.22;4.70;;;0.70;99.90;;;;;;4931216;29;20209;-74
2021/01/07 01:44:07;;;;;;;5.40;4.68;;;0.70;99.90;;;;;;4931426;29;20236;-73
2021/01/07 01:46:34;;;;;;;6.10;5.05;;;0.60;99.90;;;;;;4931514;29;20232;-74
2021/01/07 01:49:00;;;;;;;5.63;4.63;;;0.70;99.90;;;;;;4931667;29;20236;-74
2021/01/07 01:51:28;;;;;;;5.70;4.45;;;0.70;99.90;;;;;;4931487;29;20205;-75
2021/01/07 01:53:54;;;;;;;4.63;4.18;;;0.70;99.90;;;;;;4931153;29;20721;-73
2021/01/07 01:56:21;;;;;;;5.50;4.90;;;0.80;99.90;;;;;;4931344;29;20225;-73
2021/01/07 01:58:49;;;;;;;5.38;4.70;;;0.80;99.90;;;;;;4931642;29;20700;-74
2021/01/07 02:01:17;;;;;;;6.03;5.20;;;0.70;99.90;;;;;;4931259;29;20209;-74
2021/01/07 02:03:43;;;;;;;5.82;4.70;;;0.70;99.90;;;;;;4931114;29;20233;-73
2021/01/07 02:06:12;;;;;;;4.63;4.22;;;0.60;99.90;;;;;;4931495;29;20209;-75
2021/01/07 02:08:41;;;;;;;5.50;4.45;;;0.60;99.90;;;;;;4931370;29;20692;-73
2021/01/07 02:11:09;;;;;;;5.38;4.60;;;0.50;99.90;;;;;;4931081;29;20212;-75
2021/01/07 02:13:36;;;;;;;4.47;3.83;;;0.50;99.90;;;;;;4930719;29;20229;-73
2021/01/07 02:16:02;;;;;;;5.88;4.07;;;0.60;99.90;;;;;;4931354;29;20229;-74
2021/01/07 02:18:29;;;;;;;4.93;4.20;;;0.50;99.90;;;;;;4931142;29;20321;-74
2021/01/07 02:20:58;;;;;;;4.05;3.60;;;0.50;99.90;;;;;;4931424;29;20205;-73
2021/01/07 02:23:24;;;;;;;5.05;4.43;;;0.50;99.90;;;;;;4930380;29;20213;-73
2021/01/07 02:25:51;;;;;;;4.70;4.13;;;0.50;99.90;;;;;;4931356;29;20280;-74
2021/01/07 02:28:18;;;;;;;4.30;3.90;;;0.40;99.90;;;;;;4930985;29;20210;-75
2021/01/07 02:30:44;;;;;;;4.80;4.30;;;0.40;99.90;;;;;;4931278;29;20237;-73
2021/01/07 02:33:10;;;;;;;5.28;4.20;;;0.40;99.90;;;;;;4930791;29;20205;-74
2021/01/07 02:35:36;;;;;;;3.95;3.55;;;0.40;99.90;;;;;;4934421;29;20229;-74
2021/01/07 02:38:03;;;;;;;3.85;3.55;;;0.40;99.90;;;;;;4934877;29;20213;-74
2021/01/07 02:40:30;;;;;;;4.75;4.18;;;0.40;99.90;;;;;;4934394;29;20200;-73
2021/01/07 02:42:56;;;;;;;4.80;3.70;;;0.40;99.90;;;;;;4934335;29;20562;-75
2021/01/07 02:45:22;;;;;;;4.07;3.50;;;0.40;99.90;;;;;;4933979;29;20225;-74
2021/01/07 02:47:48;;;;;;;4.32;3.47;;;0.40;99.90;;;;;;4934515;29;20225;-74
2021/01/07 02:50:15;;;;;;;5.55;4.10;;;0.30;99.90;;;;;;4934159;29;20209;-74
2021/01/07 02:52:41;;;;;;;3.80;3.50;;;0.40;99.90;;;;;;4933846;29;20209;-74
2021/01/07 02:55:09;;;;;;;4.28;3.65;;;0.40;99.90;;;;;;4934213;29;20221;-73
2021/01/07 02:57:35;;;;;;;4.03;3.53;;;0.40;99.90;;;;;;4933923;29;20225;-74
2021/01/07 03:00:02;;;;;;;3.92;3.53;;;0.40;99.90;;;;;;4934361;29;20209;-74
2021/01/07 03:02:28;;;;;;;4.32;3.80;;;0.40;99.90;;;;;;4933324;29;20209;-73
2021/01/07 03:04:54;;;;;;;4.20;3.63;;;0.40;99.90;;;;;;4934234;29;20229;-74
2021/01/07 03:07:20;;;;;;;4.47;3.33;;;0.30;99.90;;;;;;4933902;29;20223;-73
2021/01/07 03:09:47;;;;;;;5.03;4.03;;;0.30;99.90;;;;;;4933983;29;20209;-74
2021/01/07 03:12:17;;;;;;;3.75;3.35;;;0.40;99.90;;;;;;4933258;29;20217;-74
2021/01/07 03:14:43;;;;;;;3.70;3.28;;;0.30;99.90;;;;;;4933948;29;20229;-73
2021/01/07 03:17:10;;;;;;;5.50;4.03;;;0.30;99.90;;;;;;4934027;29;20229;-73
2021/01/07 03:19:36;;;;;;;3.70;3.40;;;0.30;99.90;;;;;;4933883;29;20205;-73
2021/01/07 03:22:03;;;;;;;4.05;3.65;;;0.30;99.90;;;;;;4933250;29;20209;-74
2021/01/07 03:24:29;;;;;;;4.45;3.50;;;0.30;99.90;;;;;;4933381;29;20233;-75
2021/01/07 03:26:56;;;;;;;4.43;3.63;;;0.30;99.90;;;;;;4933808;29;20626;-75
2021/01/07 03:29:23;;;;;;;4.15;3.72;;;0.30;99.90;;;;;;4933645;29;20210;-74
2021/01/07 03:31:50;;;;;;;5.07;3.85;;;0.30;99.90;;;;;;4933152;29;20232;-74
2021/01/07 03:34:16;;;;;;;5.50;3.90;;;0.30;99.90;;;;;;4933556;29;20229;-74
2021/01/07 03:36:42;;;;;;;4.55;4.07;;;0.30;99.90;;;;;;4933669;29;20228;-74
2021/01/07 03:39:08;;;;;;;4.47;3.83;;;0.30;99.90;;;;;;4933650;29;20220;-74
2021/01/07 03:41:35;;;;;;;5.28;3.55;;;0.30;99.90;;;;;;4932833;29;20213;-74
2021/01/07 03:44:01;;;;;;;5.55;4.20;;;0.30;99.90;;;;;;4933405;29;20228;-74
2021/01/07 03:46:28;;;;;;;4.72;3.70;;;0.30;99.90;;;;;;4932477;29;20202;-74
2021/01/07 03:48:54;;;;;;;4.10;3.40;;;0.30;99.90;;;;;;4933533;29;20274;-75
2021/01/07 03:51:20;;;;;;;4.35;3.80;;;0.30;99.90;;;;;;4933097;29;20201;-75
2021/01/07 03:53:46;;;;;;;5.07;3.75;;;0.20;99.90;;;;;;4932576;29;20236;-74
2021/01/07 03:56:13;;;;;;;5.75;4.60;;;0.30;99.90;;;;;;4933256;29;20265;-75
2021/01/07 03:58:39;;;;;;;5.47;4.50;;;0.30;99.90;;;;;;4933258;29;20255;-74
2021/01/07 04:01:05;;;;;;;6.88;4.93;;;0.20;99.90;;;;;;4933200;29;20210;-75
2021/01/07 04:03:32;;;;;;;5.10;4.60;;;0.20;99.90;;;;;;4932347;29;20229;-74
2021/01/07 04:05:58;;;;;;;6.78;4.93;;;0.10;99.90;;;;;;4933017;29;20197;-74
2021/01/07 04:08:25;;;;;;;7.30;5.45;;;0.20;99.90;;;;;;4932780;29;20217;-75
2021/01/07 04:10:51;;;;;;;5.22;4.72;;;0.20;99.90;;;;;;4932974;29;20213;-75
2021/01/07 04:13:17;;;;;;;6.65;5.53;;;0.30;99.90;;;;;;4932211;29;20213;-75
2021/01/07 04:15:43;;;;;;;6.78;4.70;;;0.30;99.90;;;;;;4932871;29;20284;-74
2021/01/07 04:18:10;;;;;;;6.95;4.97;;;0.30;99.90;;;;;;4932883;29;20216;-76
2021/01/07 04:20:37;;;;;;;5.38;4.60;;;0.30;99.90;;;;;;4932500;29;20256;-74
2021/01/07 04:23:03;;;;;;;5.97;4.78;;;0.30;99.90;;;;;;4932100;29;20209;-75
2021/01/07 04:25:29;;;;;;;5.13;4.55;;;0.30;99.90;;;;;;4932304;29;20225;-75
2021/01/07 04:27:55;;;;;;;5.40;4.90;;;0.30;99.90;;;;;;4932580;29;20209;-75
2021/01/07 04:30:22;;;;;;;6.45;5.57;;;0.20;99.90;;;;;;4932424;29;20209;-76
2021/01/07 04:32:48;;;;;;;6.22;5.38;;;0.20;99.90;;;;;;4931935;29;20209;-73
2021/01/07 04:35:14;;;;;;;6.35;5.40;;;0.20;99.90;;;;;;4932510;29;20233;-73
2021/01/07 04:37:42;;;;;;;5.68;4.68;;;0.20;99.90;;;;;;4932329;29;20723;-73
2021/01/07 04:40:09;;;;;;;7.78;5.65;;;0.20;99.90;;;;;;4937754;29;20200;-73
2021/01/07 04:42:35;;;;;;;9.68;5.90;;;0.10;99.90;;;;;;4950704;29;20677;-73
2021/01/07 04:45:02;;;;;;;6.47;5.25;;;0.10;99.90;;;;;;4951262;29;20225;-74
2021/01/07 04:47:29;;;;;;;6.75;5.30;;;0.10;99.90;;;;;;4951320;29;20208;-74
2021/01/07 04:49:56;;;;;;;10.05;7.07;;;0.10;99.90;;;;;;4951266;29;20268;-73
2021/01/07 04:52:22;;;;;;;7.53;5.70;;;0.10;99.90;;;;;;4950464;29;20672;-72
2021/01/07 04:54:51;;;;;;;7.28;5.65;;;0.00;99.90;;;;;;4951016;29;20236;-71
2021/01/07 04:57:17;;;;;;;7.35;6.15;;;0.00;99.90;;;;;;4951058;28;20708;-71
2021/01/07 04:59:44;;;;;;;7.15;5.43;;;0.00;99.90;;;;;;4936293;29;20210;-71
2021/01/07 05:02:10;;;;;;;7.78;5.78;;;0.00;99.90;;;;;;4931771;29;20630;-71
2021/01/07 05:04:47;;;;;;;10.45;6.75;;;0.00;99.90;;;;;;4931776;29;20635;-71
2021/01/07 05:07:16;;;;;;;7.50;6.00;;;0.00;99.90;;;;;;4932084;29;20201;-70
2021/01/07 05:09:43;;;;;;;8.77;6.07;;;0.00;99.90;;;;;;4932569;29;20225;-71
2021/01/07 05:12:10;;;;;;;7.78;6.60;;;0.00;99.90;;;;;;4932017;29;20247;-71
2021/01/07 05:14:43;;;;;;;10.95;7.03;;;0.00;99.90;;;;;;4932078;29;20253;-70
2021/01/07 05:17:12;;;;;;;8.32;6.32;;;0.00;99.90;;;;;;4934402;29;20329;-71
2021/01/07 05:19:38;;;;;;;10.05;6.72;;;0.00;99.90;;;;;;4933531;29;20617;-71
2021/01/07 05:22:05;;;;;;;10.02;6.63;;;0.10;99.90;;;;;;4930990;29;20212;-71
2021/01/07 05:24:32;;;;;;;8.45;6.90;;;0.10;99.90;;;;;;4928994;29;20969;-71
2021/01/07 05:27:04;;;;;;;8.57;6.65;;;0.10;99.90;;;;;;4929698;29;20232;-70
2021/01/07 05:29:32;;;;;;;8.55;6.47;;;0.10;99.90;;;;;;4930356;29;20209;-70
2021/01/07 05:31:58;;;;;;;8.20;6.90;;;0.10;99.90;;;;;;4929816;29;20201;-71
2021/01/07 05:34:24;;;;;;;9.55;6.78;;;0.10;99.90;;;;;;4930185;29;20418;-70
2021/01/07 05:36:56;;;;;;;7.90;6.35;;;0.10;99.90;;;;;;4930533;29;20225;-70
2021/01/07 05:39:23;;;;;;;10.07;6.95;;;0.10;99.90;;;;;;4931474;29;20237;-70
2021/01/07 05:41:52;;;;;;;11.07;6.75;;;0.10;99.90;;;;;;4931091;29;20209;-71
2021/01/07 05:44:22;;;;;;;9.82;7.05;;;0.10;99.90;;;;;;4931298;29;20225;-70
2021/01/07 05:46:49;;;;;;;8.77;7.05;;;0.10;99.90;;;;;;4931570;29;20212;-70
2021/01/07 05:49:19;;;;;;;11.15;7.70;;;0.10;99.90;;;;;;4931399;29;20213;-70
2021/01/07 05:51:46;;;;;;;9.02;6.85;;;0.10;99.90;;;;;;4931268;29;20337;-71
2021/01/07 05:54:13;;;;;;;11.27;7.18;;;0.10;99.90;;;;;;4931302;29;20732;-70
2021/01/07 05:56:40;;;;;;;10.27;6.95;;;0.20;99.90;;;;;;4931285;29;20252;-70
2021/01/07 05:59:08;;;;;;;10.15;7.47;;;0.20;99.90;;;;;;4931622;29;20233;-70
2021/01/07 06:01:36;;;;;;;9.50;6.70;;;0.20;99.90;;;;;;4930676;29;20209;-70
2021/01/07 06:04:07;;;;;;;9.75;7.25;;;0.20;99.90;;;;;;4931179;29;20225;-70
2021/01/07 06:06:33;;;;;;;11.68;8.02;;;0.10;99.90;;;;;;4931060;29;20684;-70
2021/01/07 06:09:03;;;;;;;11.90;7.28;;;0.10;99.90;;;;;;4933228;29;20204;-70
2021/01/07 06:11:30;;;;;;;9.15;7.05;;;0.00;99.90;;;;;;4934771;29;20240;-70
2021/01/07 06:13:58;;;;;;;10.68;7.40;;;0.00;99.90;;;;;;4985630;23;20612;-91
2021/01/07 06:16:25;;;;;;;10.13;7.75;;;0.10;99.90;;;;;;4985911;28;20230;-92
2021/01/07 06:18:54;;;;;;;11.13;8.65;;;0.10;99.90;;;;;;4989224;28;20195;-90
2021/01/07 06:21:27;;;;;;;10.98;7.55;;;0.10;99.90;;;;;;4988182;28;20211;-91
2021/01/07 06:23:57;;;;;;;9.18;7.50;;;0.10;99.90;;;;;;4984867;28;20238;-91
2021/01/07 06:26:26;;;;;;;10.85;7.97;;;0.10;99.90;;;;;;4985177;28;20207;-92
2021/01/07 06:28:54;;;;;;;11.20;7.82;;;0.10;99.90;;;;;;4990264;28;20544;-92
2021/01/07 06:31:21;;;;;;;11.75;8.30;;;0.10;99.90;;;;;;4995995;28;20263;-92
2021/01/07 06:33:50;;;;;;;13.77;9.27;;;0.10;99.90;;;;;;4986125;28;20808;-92
2021/01/07 06:36:16;;;;;;;11.95;8.27;;;0.10;99.90;;;;;;4983318;28;20255;-92
2021/01/07 06:38:52;;;;;;;10.45;8.40;;;0.10;99.90;;;;;;4988593;28;20251;-92
2021/01/07 06:41:19;;;;;;;11.93;8.98;;;0.10;99.90;;;;;;4984535;28;20207;-92
2021/01/07 06:43:48;;;;;;;15.88;9.10;;;0.20;99.90;;;;;;4991181;28;20247;-94
2021/01/07 06:46:39;;;;;;;13.13;8.75;;;0.10;99.90;;;;;;4996332;28;20212;-94
2021/01/07 06:49:27;;;;;;;13.40;9.80;;;0.10;99.90;;;;;;4995514;28;20242;-92
2021/01/07 06:51:57;;;;;;;12.48;7.72;;;0.10;99.90;;;;;;4993415;28;20212;-92
2021/01/07 06:54:31;;;;;;;12.27;8.63;;;0.10;99.90;;;;;;4995728;28;20216;-91
2021/01/07 06:57:03;;;;;;;11.57;8.43;;;0.10;99.90;;;;;;4995657;28;20228;-93
2021/01/07 06:59:30;;;;;;;11.23;8.10;;;0.10;99.90;;;;;;4991149;28;20188;-91
2021/01/07 07:01:58;;;;;;;12.57;8.52;;;0.10;99.90;;;;;;4986056;28;20286;-93
2021/01/07 07:04:26;;;;;;;10.45;7.38;;;0.10;99.90;;;;;;4988414;28;20306;-92
2021/01/07 07:07:03;;;;;;;14.82;8.98;;;0.10;99.90;;;;;;4990841;28;20219;-91
2021/01/07 07:09:40;;;;;;;11.43;8.52;;;0.10;99.90;;;;;;4990603;28;20571;-92
2021/01/07 07:12:07;;;;;;;13.18;9.00;;;0.10;99.90;;;;;;4988551;28;20278;-92
2021/01/07 07:14:34;;;;;;;11.98;8.98;;;0.10;99.90;;;;;;4991323;28;20271;-94
2021/01/07 07:17:08;;;;;;;12.77;9.38;;;0.10;99.90;;;;;;4989725;28;20779;-93
2021/01/07 07:19:37;;;;;;;12.10;8.35;;;0.10;99.90;;;;;;4988375;28;20243;-93
2021/01/07 07:22:09;;;;;;;12.57;9.23;;;0.10;99.90;;;;;;4987804;28;20234;-93
2021/01/07 07:24:39;;;;;;;11.07;8.00;;;0.20;99.90;;;;;;4996228;28;20215;-92
2021/01/07 07:27:09;;;;;;;13.48;8.02;;;0.20;99.90;;;;;;4998654;28;20191;-93
2021/01/07 07:29:37;;;;;;;13.13;7.97;;;0.20;99.90;;;;;;5004527;28;20206;-93
2021/01/07 07:32:25;;;;;;;10.65;8.88;;;0.20;99.90;;;;;;5003803;28;20211;-92
2021/01/07 07:34:53;;;;;;;13.43;8.93;;;0.10;99.90;;;;;;5010246;28;20227;-92
2021/01/07 07:37:20;;;;;;;12.25;8.07;;;0.10;99.90;;;;;;5013001;28;20286;-93
2021/01/07 07:39:59;;;;;;;12.77;7.85;;;0.20;99.90;;;;;;5013483;28;20203;-92
2021/01/07 07:42:28;;;;;;;11.98;8.50;;;0.20;99.90;;;;;;5013929;28;20278;-93
2021/01/07 07:44:54;;;;;;;9.50;7.60;;;0.30;99.90;;;;;;5015358;28;20261;-95
2021/01/07 07:47:22;;;;;;;13.27;8.43;;;0.30;99.90;;;;;;5013630;28;20242;-93
2021/01/07 07:49:54;;;;;;;12.82;8.57;;;0.30;99.90;;;;;;5010012;28;20210;-94
2021/01/07 07:52:39;;;;;;;12.85;9.18;;;0.40;99.90;;;;;;5008028;28;20210;-94
2021/01/07 07:55:07;;;;;;;11.55;8.25;;;0.30;99.90;;;;;;5000608;28;20235;-93
2021/01/07 07:57:45;;;;;;;10.68;7.63;;;0.40;99.90;;;;;;4994603;28;20227;-94
2021/01/07 08:00:16;;;;;;;11.30;8.60;;;0.40;99.90;;;;;;4996342;28;20543;-93
2021/01/07 08:02:43;;;;;;;10.55;8.45;;;0.40;99.90;;;;;;4998198;28;20213;-94
2021/01/07 08:05:11;;;;;;;10.07;8.13;;;0.40;99.90;;;;;;4996240;28;20463;-93
2021/01/07 08:10:25;;;;;;;12.18;8.73;;;0.50;99.90;;;;;;4911237;29;20236;-76
2021/01/07 08:12:53;;;;;;;12.23;8.48;;;0.50;99.90;;;;;;4914600;29;20205;-75
2021/01/07 08:15:29;;;;;;;14.02;9.18;;;0.60;99.90;;;;;;4920646;29;20286;-76
2021/01/07 08:17:55;;;;;;;11.05;7.72;;;0.60;99.90;;;;;;4903434;29;20230;-76
2021/01/07 08:20:25;;;;;;;9.70;7.80;;;0.60;99.90;;;;;;4916728;29;20744;-76
2021/01/07 08:22:52;;;;;;;10.27;7.80;;;0.60;99.90;;;;;;4922431;29;20216;-76
2021/01/07 08:25:26;;;;;;;13.70;10.15;;;0.70;99.90;;;;;;4913804;29;20238;-76
2021/01/07 08:27:57;;;;;;;10.80;7.82;;;0.50;99.90;;;;;;4930734;29;20665;-76
2021/01/07 08:30:24;;;;;;;12.52;7.90;;;0.60;99.90;;;;;;4910911;29;20232;-75
2021/01/07 08:32:52;;;;;;;11.18;7.63;;;0.70;99.90;;;;;;4920014;29;20197;-76
2021/01/07 08:35:21;;;;;;;12.68;8.90;;;0.70;99.90;;;;;;4911343;29;20233;-76
2021/01/07 08:37:47;;;;;;;15.30;9.55;;;0.80;99.90;;;;;;4911665;29;20222;-76
2021/01/07 08:40:15;;;;;;;11.70;7.75;;;0.90;99.90;;;;;;4909725;29;20216;-76
2021/01/07 08:42:42;;;;;;;14.15;8.65;;;1.00;99.90;;;;;;4929234;29;20204;-76
2021/01/07 08:45:10;;;;;;;11.00;8.05;;;1.10;99.90;;;;;;4924340;29;20230;-77
2021/01/07 08:47:36;;;;;;;11.95;8.65;;;1.10;99.90;;;;;;4909816;29;20590;-76
2021/01/07 08:50:10;;;;;;;13.35;9.25;;;1.10;99.90;;;;;;4918354;29;20257;-76
2021/01/07 08:52:52;;;;;;;12.13;8.70;;;1.00;99.90;;;;;;4930802;29;20204;-76
2021/01/07 08:55:18;;;;;;;12.68;8.93;;;1.00;99.90;;;;;;4930535;29;20233;-76
2021/01/07 08:57:46;;;;;;;12.95;9.75;;;1.00;99.90;;;;;;4931060;29;20807;-76
2021/01/07 09:00:18;;;;;;;11.57;9.05;;;1.10;99.90;;;;;;4917127;29;20273;-76
2021/01/07 09:02:44;;;;;;;15.45;10.13;;;1.20;99.90;;;;;;4907979;29;20202;-76
2021/01/07 09:05:10;;;;;;;12.10;8.60;;;1.20;99.90;;;;;;4911837;29;20777;-75
2021/01/07 09:07:37;;;;;;;9.77;8.30;;;1.20;99.90;;;;;;4911382;29;20217;-76
2021/01/07 09:10:05;;;;;;;9.47;7.60;;;1.20;99.90;;;;;;4910377;29;552431;-76
2021/01/07 09:12:32;;;;;;;10.45;8.55;;;1.30;99.90;;;;;;4931588;29;20209;-76
2021/01/07 09:15:05;;;;;;;10.52;8.60;;;1.10;99.90;;;;;;4931629;29;20229;-75
2021/01/07 09:17:42;;;;;;;12.35;8.48;;;1.10;99.90;;;;;;4931964;29;20225;-76
2021/01/07 09:20:10;;;;;;;10.77;7.70;;;1.20;99.90;;;;;;4931126;29;20204;-76
2021/01/07 09:22:37;;;;;;;12.73;8.60;;;1.20;99.90;;;;;;4931117;29;20212;-77
2021/01/07 09:25:04;;;;;;;10.00;7.75;;;1.30;99.90;;;;;;4931115;29;20229;-76
2021/01/07 09:27:31;;;;;;;11.75;8.75;;;1.40;99.90;;;;;;4931628;29;20212;-74
2021/01/07 09:29:57;;;;;;;10.02;7.40;;;1.40;99.90;;;;;;4931504;29;20282;-74
2021/01/07 09:32:24;;;;;;;9.73;7.75;;;1.60;99.90;;;;;;4929920;29;20237;-73
2021/01/07 09:34:51;;;;;;;10.45;7.72;;;1.70;99.90;;;;;;4893535;29;20571;-74
2021/01/07 09:37:20;;;;;;;10.85;8.05;;;1.70;99.90;;;;;;4892914;29;20234;-75
2021/01/07 09:39:49;;;;;;;10.00;7.90;;;1.70;99.90;;;;;;4893337;29;20262;-74
2021/01/07 09:42:16;;;;;;;10.52;8.00;;;1.60;99.90;;;;;;4892397;29;20210;-74
2021/01/07 09:44:43;;;;;;;10.63;7.18;;;1.70;99.90;;;;;;4896915;29;20725;-75
2021/01/07 09:47:09;;;;;;;9.48;6.85;;;1.80;99.90;;;;;;4934555;29;20201;-76
2021/01/07 09:49:36;;;;;;;10.80;7.85;;;1.90;99.90;;;;;;4931650;29;20264;-76
2021/01/07 09:52:04;;;;;;;11.52;7.55;;;1.90;99.90;;;;;;4915630;29;20210;-75
2021/01/07 09:54:30;;;;;;;9.43;6.93;;;2.00;99.90;;;;;;4915863;29;20244;-75
2021/01/07 09:56:58;;;;;;;9.80;7.47;;;2.00;99.90;;;;;;4915901;29;20229;-75
2021/01/07 09:59:25;;;;;;;10.98;8.65;;;2.00;99.90;;;;;;4933801;29;20626;-76
2021/01/07 10:01:52;;;;;;;10.75;8.75;;;2.10;99.90;;;;;;4934361;29;20209;-73
2021/01/07 10:04:19;;;;;;;11.27;7.90;;;2.10;99.90;;;;;;4933822;29;20228;-73
2021/01/07 10:06:46;;;;;;;10.55;7.22;;;2.20;99.90;;;;;;4934762;29;20205;-74
2021/01/07 10:09:12;;;;;;;9.65;7.88;;;2.10;99.90;;;;;;4933460;29;20280;-73
2021/01/07 10:11:39;;;;;;;9.25;7.97;;;2.10;99.90;;;;;;4933263;29;20213;-74
2021/01/07 10:14:05;;;;;;;10.85;7.38;;;2.00;99.90;;;;;;4934263;29;20233;-75
2021/01/07 10:16:32;;;;;;;10.30;7.53;;;2.00;99.90;;;;;;4934522;29;20726;-74
2021/01/07 10:18:58;;;;;;;11.38;7.95;;;2.00;99.90;;;;;;4934551;29;20221;-75
2021/01/07 10:21:25;;;;;;;10.50;7.97;;;2.00;99.90;;;;;;4934409;29;20273;-74
2021/01/07 10:23:53;;;;;;;12.75;8.55;;;2.00;99.90;;;;;;4933182;29;20232;-75
2021/01/07 10:26:20;;;;;;;15.18;9.63;;;2.10;99.90;;;;;;4919932;29;20229;-75
2021/01/07 10:28:47;;;;;;;9.50;7.85;;;2.20;99.90;;;;;;4915250;29;20198;-75
2021/01/07 10:31:15;;;;;;;11.48;8.00;;;2.10;99.90;;;;;;4914139;29;20214;-74
2021/01/07 10:33:43;;;;;;;13.88;8.43;;;2.30;99.90;;;;;;4914841;29;20233;-74
2021/01/07 10:36:10;;;;;;;10.25;8.40;;;2.30;99.90;;;;;;4930364;29;20642;-74
2021/01/07 10:38:38;;;;;;;9.73;7.45;;;2.30;99.90;;;;;;4934331;29;20233;-75
2021/01/07 10:41:06;;;;;;;11.82;8.52;;;2.40;99.90;;;;;;4933702;29;20241;-75
2021/01/07 10:43:34;;;;;;;12.70;9.25;;;2.40;99.90;;;;;;4933536;29;20425;-74
2021/01/07 10:46:00;;;;;;;10.55;7.65;;;2.50;99.90;;;;;;4933711;29;20243;-75
2021/01/07 10:48:27;;;;;;;10.52;7.85;;;2.50;99.90;;;;;;4933347;29;20690;-76
2021/01/07 10:50:54;;;;;;;11.15;8.30;;;2.50;99.90;;;;;;4934218;29;20216;-74
2021/01/07 10:53:48;;;;;;;9.70;8.00;;;2.70;99.90;;;;;;4933227;29;20751;-74
2021/01/07 10:56:26;;;;;;;8.57;7.22;;;2.80;99.90;;;;;;4933439;29;20239;-74
2021/01/07 10:59:08;;;;;;;9.10;6.85;;;2.80;99.90;;;;;;4933118;29;20205;-75
2021/01/07 11:01:53;;;;;;;10.95;7.70;;;2.70;99.90;;;;;;4895993;29;20206;-74
2021/01/07 11:04:52;;;;;;;8.38;7.50;;;2.90;99.90;;;;;;4895427;29;20226;-75
2021/01/07 11:07:29;;;;;;;10.38;7.93;;;3.00;99.90;;;;;;4884195;29;20215;-74
2021/01/07 11:10:03;;;;;;;9.30;7.43;;;3.10;99.90;;;;;;4895846;29;20594;-74
2021/01/07 11:12:37;;;;;;;9.52;7.03;;;3.10;99.90;;;;;;4895234;29;20206;-74
2021/01/07 11:15:06;;;;;;;9.25;7.25;;;3.30;99.90;;;;;;4896631;29;20221;-75
2021/01/07 11:17:34;;;;;;;8.60;6.85;;;3.40;99.90;;;;;;4914385;29;20217;-74
2021/01/07 11:20:05;;;;;;;10.45;7.15;;;3.50;99.90;;;;;;4911213;29;20194;-74
2021/01/07 11:22:34;;;;;;;9.13;7.15;;;3.40;99.90;;;;;;4913594;29;20198;-74
2021/01/07 11:25:02;;;;;;;10.38;7.05;;;3.30;99.90;;;;;;4910372;29;20249;-74
2021/01/07 11:27:31;;;;;;;10.25;6.47;;;3.40;99.90;;;;;;4913873;29;20206;-74
2021/01/07 11:30:03;;;;;;;7.63;6.57;;;3.70;99.90;;;;;;4911780;29;20202;-75
2021/01/07 11:32:30;;;;;;;8.35;7.03;;;4.00;99.90;;;;;;4913264;29;20202;-75
2021/01/07 11:34:59;;;;;;;7.80;5.95;;;4.20;99.90;;;;;;4914272;29;20253;-74
2021/01/07 11:37:40;;;;;;;9.25;6.00;;;4.30;99.90;;;;;;4913507;29;20221;-74
2021/01/07 11:40:08;;;;;;;10.13;6.70;;;4.50;99.90;;;;;;4913840;29;20206;-73
2021/01/07 11:43:11;;;;;;;9.30;6.30;;;4.70;99.90;;;;;;4913354;29;20202;-75
2021/01/07 11:45:38;;;;;;;7.85;6.00;;;4.80;99.90;;;;;;4914275;29;20870;-74
2021/01/07 11:48:07;;;;;;;8.15;6.38;;;4.70;99.90;;;;;;4913886;29;20237;-75
2021/01/07 11:50:36;;;;;;;6.88;6.05;;;4.70;99.90;;;;;;4913673;29;20201;-74
2021/01/07 11:53:04;;;;;;;8.25;6.82;;;4.80;99.90;;;;;;4913052;29;20241;-74
2021/01/07 11:55:30;;;;;;;7.53;6.20;;;4.50;99.90;;;;;;4913973;29;20232;-74
2021/01/07 11:57:58;;;;;;;7.97;5.85;;;4.00;99.90;;;;;;4913660;29;20244;-74
2021/01/07 12:00:26;;;;;;;7.38;5.93;;;3.80;99.90;;;;;;4913050;29;20212;-73
2021/01/07 12:02:53;;;;;;;6.57;5.88;;;3.50;99.90;;;;;;4912896;29;20206;-74
2021/01/07 12:05:22;;;;;;;8.00;5.97;;;3.40;99.90;;;;;;4913272;29;20229;-75
2021/01/07 12:08:09;;;;;;;8.88;6.43;;;3.30;99.90;;;;;;4913223;29;20638;-75
2021/01/07 12:10:40;;;;;;;8.70;6.43;;;3.30;99.90;;;;;;4913097;29;20214;-74
2021/01/07 12:13:15;;;;;;;7.63;6.63;;;3.20;99.90;;;;;;4913487;29;20202;-74
2021/01/07 12:15:44;;;;;;;8.95;6.53;;;3.10;99.90;;;;;;4911390;29;20197;-74
2021/01/07 12:18:12;;;;;;;7.13;6.00;;;3.00;99.90;;;;;;4912502;29;20234;-74
2021/01/07 12:20:39;;;;;;;8.48;6.35;;;3.00;99.90;;;;;;4912506;29;20217;-74
2021/01/07 12:23:08;;;;;;;7.70;5.70;;;3.00;99.90;;;;;;4912208;29;20210;-74
2021/01/07 12:25:39;;;;;;;8.05;6.35;;;3.00;99.90;;;;;;4912258;29;20218;-75
2021/01/07 12:28:06;;;;;;;5.65;4.70;;;3.00;99.90;;;;;;4912269;29;20202;-74
2021/01/07 12:30:37;;;;;;;9.88;6.63;;;3.00;99.90;;;;;;4911728;29;20705;-73
2021/01/07 12:33:12;;;;;;;6.95;6.00;;;2.80;99.90;;;;;;4912364;29;20226;-74
2021/01/07 12:35:46;;;;;;;7.95;6.15;;;2.70;99.90;;;;;;4913385;29;20210;-74
2021/01/07 12:38:23;;;;;;;8.95;6.90;;;2.70;99.90;;;;;;4917206;29;20260;-74
2021/01/07 12:40:58;;;;;;;7.00;6.30;;;2.70;99.90;;;;;;4920004;29;20205;-73
2021/01/07 12:43:28;;;;;;;8.43;5.85;;;2.70;99.90;;;;;;4912244;29;20205;-74
2021/01/07 12:45:57;;;;;;;7.55;6.75;;;2.60;99.90;;;;;;4912825;29;20218;-75
2021/01/07 12:48:25;;;;;;;7.88;6.07;;;2.60;99.90;;;;;;4912216;29;20201;-74
2021/01/07 12:50:55;;;;;;;9.05;6.40;;;2.70;99.90;;;;;;4911605;29;20213;-74
2021/01/07 12:53:21;;;;;;;11.18;7.28;;;2.80;99.90;;;;;;4911252;29;20226;-74
2021/01/07 12:55:48;;;;;;;8.63;6.60;;;2.70;99.90;;;;;;4912022;29;20229;-77
2021/01/07 12:58:21;;;;;;;8.52;6.47;;;2.60;99.90;;;;;;4911729;29;20244;-73
2021/01/07 13:00:55;;;;;;;9.02;6.88;;;2.50;99.90;;;;;;4912217;29;20265;-76
2021/01/07 13:03:31;;;;;;;10.35;7.65;;;2.50;99.90;;;;;;4911409;29;20252;-76
2021/01/07 13:06:01;;;;;;;12.13;7.00;;;2.40;99.90;;;;;;4912228;29;20704;-74